map of PUQ home
PUQ - Airport
Location
City:  Punta Arenas, Magallanes y de la Antártica Chilena, Chile
Name:Presidente Carlos Ibáñez del Campo International Airport
ICAO:SCCI
IATA:PUQ

Details
Type:Airport (Aerodrome, Airfield)
Use:Public/Civil, International (customs port of entry)
Latitude:53°00'13"S (-53.003610)
Longitude:70°51'13"W (-70.853610)
Elevation:139 ft (42 m)
Variation:13.29°E (WMM2015 magnetic declination)
-0.07° annual change
Runways:3
Longest:9154 × 197 ft (2790 × 60 m), paved

Time
Time Zone:UTC-4 (DST-3)
Local Time:

Weather
METAR:SCCI 110900Z 27009KT 9999 SCT030 SCT040 07/04 Q0995 NOSIG
TAF:SCCI 110414Z 1106/1206 28022G33KT 9999 FEW040 TN07/1109Z TX13/1119Z
BECMG 1106/1108 26017KT SCT033
BECMG 1115/1117 24011KT BKN030
TEMPO 1117/1123 20005KT TELVA0357 110530 GG KWBCYMYX MPZZMAMX 110530 SCSCYZYX FTCH15 SCSC 110600 TAF SCBA 110430Z 1106/1206 30025KT CAVOK TN08/1110Z TX16/1118Z
BECMG 1110/1112 30025G35KT BKN030
TEMPO 1115/1122 8000 -SHRA

Related Locations
Nearby:
Farthest:UIUI: 12401 mi / 19957 km
Ust'-Barguzin, BU, RU

Find:

   beyond  
but within

Other Information
Maps:
NOTAMs:
Links:
Sources:

  
flag of Chile
flag of Magallanes y de la Antártica Chilena
  

Sectional Chart

Flight Planning
at skyvector.com

Satellite Image

Google Maps Satellite view

 

Copyright © 2004-2016 Karl L. Swartz. All rights reserved.
The Great Circle Mapper name and logo are trademarks of the Great Circle Mapper.
All other trademarks mentioned herein belong to their respective owners.
Please see credits for attibutions and further copyright information.

  Follow gcmap on Facebook Follow gcmap on Twitter Follow gcmap on Google+ GCmap on LinkedIn

hCard Microformat

Geo Microformat